• Join FlightAware (Why Join?)
  • Login
  • US Flag 
Rudolph Flight #1: Scheduled 
10:54PM EST


 

Airport Tracker/Info


-or-


 

Live Flight TrackerFlight Track Log ✈ WIG1045 ✈ 11-Oct-2013 ✈ KBGR - KMHT

Flight Track Log - Related Links

Times and Time Zones

All times are in EDT time to prevent confusion due to time zone crossing. See the WIG1045 flight status page for this flight to view local times or setup timezone preferences in your user account.

Time Position Orientation Groundspeed Altitude Reporting Facility
EDT Latitude Longitude Course Direction KTS MPH feet Rate Location/Type
07:55PM 44.5936 -69.1383 226° Southwest  Level Estimated
07:56PM 44.5574 -69.1890 225° Southwest  Level FlightAware Approximate
07:57PM 44.5216 -69.2405 225° Southwest  Level Estimated
07:58PM 44.4856 -69.2915 225° Southwest  Level FlightAware Approximate
07:59PM 44.4495 -69.3424 225° Southwest  Level FlightAware Approximate
08:00PM 44.4135 -69.3932 225° Southwest  Level FlightAware Approximate
08:01PM 44.3774 -69.4440 225° Southwest  Level FlightAware Approximate
08:02PM 44.3412 -69.4948 225° Southwest  Level FlightAware Approximate
08:03PM 44.3051 -69.5454 225° Southwest  Level FlightAware Approximate
08:04PM 44.2689 -69.5960 225° Southwest  Level FlightAware Approximate
08:05PM 44.2327 -69.6466 225° Southwest  Level FlightAware Approximate
08:06PM 44.1965 -69.6971 225° Southwest  Level FlightAware Approximate
08:07PM 44.1603 -69.7475 225° Southwest  Level FlightAware Approximate
08:08PM 44.1241 -69.7979 225° Southwest  Level FlightAware Approximate
08:09PM 44.0878 -69.8482 225° Southwest  Level FlightAware Approximate
08:10PM 44.0515 -69.8984 225° Southwest  Level FlightAware Approximate
08:11PM 44.0151 -69.9486 225° Southwest  Level FlightAware Approximate
08:12PM 43.9792 -69.9993 224° Southwest  Level Estimated
08:13PM 43.9428 -70.0492 225° Southwest  Level FlightAware Approximate
08:14PM 43.9064 -70.0991 225° Southwest  Level FlightAware Approximate
08:15PM 43.8699 -70.1490 225° Southwest  Level FlightAware Approximate
08:16PM 43.8334 -70.1988 225° Southwest  Level FlightAware Approximate
08:17PM 43.7969 -70.2485 225° Southwest  Level FlightAware Approximate
08:17PM 43.6333 -70.5333 224° Southwest 233 268 8,100  Level KA90
08:18PM 43.7604 -70.2982 224° Southwest  Level FlightAware Approximate
08:18PM 43.6000 -70.6000 235° Southwest 234 269 8,100  Level KA90
08:19PM 43.7238 -70.3478 224° Southwest  Level FlightAware Approximate
08:19PM 43.5500 -70.6500 216° Southwest 232 267 8,100  Level KA90
08:20PM 43.6872 -70.3973 224° Southwest  Level FlightAware Approximate
08:20PM 43.5000 -70.7167 224° Southwest 231 266 8,100  Level KA90
08:21PM 43.6506 -70.4468 224° Southwest  Level FlightAware Approximate
08:21PM 43.4500 -70.7833 224° Southwest 230 265 8,100  Level KA90
08:21PM 43.4167 -70.8167 216° Southwest 230 265 8,100  Level KA90
08:22PM 43.6140 -70.4962 224° Southwest  Level FlightAware Approximate
08:22PM 43.3667 -70.8833 224° Southwest 230 265 8,100  Level KA90
08:23PM 43.3167 -70.9500 224° Southwest 228 262 8,100 -240 Level KA90
08:25PM 43.2667 -71.0167 224° Southwest 238 274 7,700 -540 Descending KA90
08:26PM 43.2167 -71.0833 224° Southwest 247 284 7,000 -780 Descending KA90
08:27PM 43.1667 -71.1500 224° Southwest 251 289 6,100 -960 Descending KA90
08:28PM 43.1167 -71.2167 224° Southwest 257 296 5,100 -1,200 Descending KA90
08:29PM 43.0667 -71.2833 224° Southwest 257 296 3,700 -1,560 Descending KA90
08:30PM 43.0167 -71.3500 224° Southwest 235 270 2,200 -1,200 Descending KA90
08:31PM 42.9833 -71.3833 216° Southwest 122 140 1,500 -780 Descending KA90
08:32PM 42.9500 -71.4167 216° Southwest 112 129 700 -840 Descending KA90
08:34PM 42.9328 -71.4358 222° Southwest  Level Estimated